Time;durP1;ratioP1;P1;durP2;ratioP2;P2;SDS_P1;SDS_P2;PMS_P1;PMS_P2;Temp;Humidity;BMP_temperature;BMP_pressure;BME280_temperature;BME280_humidity;BME280_pressure;Samples;Min_cycle;Max_cycle;Signal;HPM_P1;HPM_P2
2023/10/29 00:01:57;;;;;;;0.08;0.08;;;;;;;10.79;59.78;99227.16;5307915;26;20060;-92
2023/10/29 00:04:23;;;;;;;0.95;0.28;;;;;;;10.92;59.79;99238.75;5307474;26;20460;-92
2023/10/29 00:06:48;;;;;;;0.00;0.00;;;;;;;10.64;59.77;99239.87;5307767;26;20101;-94
2023/10/29 00:09:13;;;;;;;0.00;0.00;;;;;;;10.81;59.78;99244.41;5306726;26;32090;-93
2023/10/29 00:11:39;;;;;;;0.00;0.00;;;;;;;10.79;59.77;99238.41;5307868;26;20076;-93
2023/10/29 00:14:04;;;;;;;2.30;0.60;;;;;;;10.54;59.75;99251.56;5307777;26;20048;-93
2023/10/29 00:16:30;;;;;;;0.15;0.15;;;;;;;10.43;59.75;99249.41;5319713;26;20113;-90
2023/10/29 00:18:55;;;;;;;0.05;0.00;;;;;;;10.44;59.76;99245.91;5312261;26;20116;-93
2023/10/29 00:21:21;;;;;;;0.15;0.15;;;;;;;10.41;59.75;99246.03;5310936;26;20144;-92
2023/10/29 00:23:46;;;;;;;0.00;0.00;;;;;;;10.41;59.76;99240.81;5320187;26;20063;-93
2023/10/29 00:26:11;;;;;;;0.00;0.00;;;;;;;10.42;59.75;99229.50;5307519;26;20371;-92
2023/10/29 00:28:37;;;;;;;0.28;0.28;;;;;;;10.48;59.76;99230.16;5307563;26;20213;-93
2023/10/29 00:31:02;;;;;;;0.25;0.05;;;;;;;10.55;59.75;99229.00;5307320;26;20072;-93
2023/10/29 00:33:28;;;;;;;0.00;0.00;;;;;;;10.58;59.76;99231.47;5326351;26;20055;-93
2023/10/29 00:35:54;;;;;;;0.10;0.10;;;;;;;10.52;59.76;99231.72;5307697;26;20146;-94
2023/10/29 00:38:19;;;;;;;0.47;0.47;;;;;;;10.39;59.76;99237.41;5308517;26;20052;-92
2023/10/29 00:40:45;;;;;;;0.68;0.68;;;;;;;10.37;59.75;99225.38;5307590;26;36080;-93
2023/10/29 00:43:14;;;;;;;0.00;0.00;;;;;;;10.34;59.75;99215.94;5308811;26;20116;-93
2023/10/29 00:45:40;;;;;;;0.00;0.00;;;;;;;10.51;59.76;99222.22;5290932;26;20729;-93
2023/10/29 00:48:06;;;;;;;0.00;0.00;;;;;;;10.44;59.76;99224.22;5309180;26;20079;-93
2023/10/29 00:50:31;;;;;;;0.47;0.25;;;;;;;10.45;59.75;99224.16;5309713;26;20096;-93
2023/10/29 00:52:57;;;;;;;0.25;0.25;;;;;;;10.43;59.76;99225.16;5308336;26;20100;-94
2023/10/29 00:55:23;;;;;;;1.05;0.35;;;;;;;10.36;59.75;99223.66;5308661;26;20048;-93
2023/10/29 00:57:48;;;;;;;0.00;0.00;;;;;;;10.47;59.76;99229.31;5308352;26;20040;-94
2023/10/29 01:00:17;;;;;;;1.10;0.57;;;;;;;10.54;59.75;99217.75;5327114;26;20107;-94
2023/10/29 01:02:43;;;;;;;0.00;0.00;;;;;;;10.37;59.75;99218.41;5309548;26;20131;-92
2023/10/29 01:05:08;;;;;;;0.00;0.00;;;;;;;10.32;59.76;99203.88;5326072;26;31007;-93
2023/10/29 01:07:35;;;;;;;0.00;0.00;;;;;;;10.37;59.75;99212.34;5308601;26;20048;-92
2023/10/29 01:10:00;;;;;;;0.85;0.60;;;;;;;10.34;59.75;99207.28;5308751;26;20119;-93
2023/10/29 01:12:27;;;;;;;0.88;0.13;;;;;;;10.51;59.76;99206.63;5310796;26;20409;-93
2023/10/29 01:14:52;;;;;;;0.70;0.70;;;;;;;10.59;59.76;99215.78;5308852;26;20057;-93
2023/10/29 01:17:20;;;;;;;0.10;0.10;;;;;;;10.50;59.76;99208.37;5308935;26;20067;-94
2023/10/29 01:19:45;;;;;;;0.00;0.00;;;;;;;10.40;59.76;99213.06;5290861;26;20029;-93
2023/10/29 01:22:10;;;;;;;4.62;1.10;;;;;;;10.37;59.75;99215.81;5309770;26;20107;-94
2023/10/29 01:24:36;;;;;;;3.00;0.57;;;;;;;10.28;59.74;99218.78;5310450;26;20062;-93
2023/10/29 01:27:03;;;;;;;0.03;0.03;;;;;;;10.04;59.74;99212.75;5311591;26;20075;-93
2023/10/29 01:29:29;;;;;;;0.00;0.00;;;;;;;10.08;59.73;99216.06;5310697;26;20117;-93
2023/10/29 01:31:54;;;;;;;0.13;0.13;;;;;;;10.14;59.74;99224.47;5308493;26;20061;-93
2023/10/29 01:34:19;;;;;;;0.13;0.13;;;;;;;10.07;59.73;99220.41;5307651;26;32107;-92
2023/10/29 01:36:45;;;;;;;0.10;0.10;;;;;;;10.03;59.74;99224.03;5308329;26;20056;-94
2023/10/29 01:39:10;;;;;;;0.00;0.00;;;;;;;10.03;59.73;99238.81;5308331;26;20111;-93
2023/10/29 01:41:36;;;;;;;0.00;0.00;;;;;;;10.05;59.73;99230.03;5308493;26;20146;-92
2023/10/29 01:44:01;;;;;;;0.35;0.35;;;;;;;10.09;59.74;99236.81;5308335;26;20174;-92
2023/10/29 01:46:27;;;;;;;0.00;0.00;;;;;;;9.97;59.73;99234.69;5308681;26;20096;-93
2023/10/29 01:48:53;;;;;;;0.05;0.05;;;;;;;10.03;59.74;99238.81;5309128;26;20433;-93
2023/10/29 01:51:18;;;;;;;0.50;0.17;;;;;;;9.92;59.72;99238.34;5317260;26;27084;-92
2023/10/29 01:53:43;;;;;;;0.10;0.10;;;;;;;10.03;59.73;99231.00;5313106;26;20071;-92
2023/10/29 01:56:09;;;;;;;0.00;0.00;;;;;;;9.90;59.72;99234.97;5307844;26;23246;-93
2023/10/29 01:58:34;;;;;;;0.00;0.00;;;;;;;10.04;59.73;99238.75;5308300;26;20075;-92
2023/10/29 02:01:00;;;;;;;0.00;0.00;;;;;;;10.14;59.73;99237.47;5308553;26;20064;-92
2023/10/29 02:03:26;;;;;;;0.00;0.00;;;;;;;10.12;59.74;99248.84;5308234;26;20093;-92
2023/10/29 02:05:52;;;;;;;1.12;1.00;;;;;;;10.19;59.74;99245.13;5308541;26;20064;-92
2023/10/29 02:08:18;;;;;;;0.43;0.43;;;;;;;10.16;59.73;99240.84;5311049;26;20175;-92
2023/10/29 02:10:43;;;;;;;0.00;0.00;;;;;;;10.21;59.74;99238.13;5308094;26;20396;-93
2023/10/29 02:13:09;;;;;;;2.03;1.37;;;;;;;10.36;59.75;99236.69;5308220;26;20385;-92
2023/10/29 02:15:34;;;;;;;0.93;0.77;;;;;;;10.30;59.75;99255.97;5308274;26;20115;-93
2023/10/29 02:17:59;;;;;;;1.98;0.43;;;;;;;10.39;59.75;99253.00;5308393;26;20078;-93
2023/10/29 02:20:25;;;;;;;1.70;0.85;;;;;;;10.60;59.76;99243.50;5307305;26;27363;-92
2023/10/29 02:22:50;;;;;;;0.00;0.00;;;;;;;10.42;59.75;99250.31;5308468;26;20091;-94
2023/10/29 02:25:16;;;;;;;0.00;0.00;;;;;;;10.38;59.75;99243.50;5308045;26;20429;-92
2023/10/29 02:27:41;;;;;;;0.10;0.10;;;;;;;10.33;59.75;99252.41;5309382;26;20143;-91
2023/10/29 02:30:07;;;;;;;0.47;0.47;;;;;;;10.55;59.77;99255.88;5309722;26;20416;-93
2023/10/29 02:32:32;;;;;;;0.60;0.40;;;;;;;10.34;59.75;99254.09;5290074;26;20079;-93
2023/10/29 02:34:58;;;;;;;0.55;0.35;;;;;;;10.39;59.75;99257.38;5326488;26;20143;-92
2023/10/29 02:37:23;;;;;;;0.45;0.32;;;;;;;10.40;59.75;99264.25;5308226;26;20083;-93
2023/10/29 02:39:48;;;;;;;1.42;1.33;;;;;;;10.44;59.76;99265.88;5307948;26;20107;-92
2023/10/29 02:42:16;;;;;;;1.35;1.12;;;;;;;10.40;59.75;99264.25;5308149;26;20104;-94
2023/10/29 02:44:42;;;;;;;2.22;0.60;;;;;;;10.54;59.76;99261.13;5308554;26;20127;-93
2023/10/29 02:47:07;;;;;;;1.00;0.95;;;;;;;10.65;59.76;99261.56;5308189;26;20436;-93
2023/10/29 02:49:33;;;;;;;0.32;0.32;;;;;;;10.65;59.77;99253.75;5309106;26;20397;-94
2023/10/29 02:51:58;;;;;;;1.25;1.15;;;;;;;10.68;59.76;99253.63;5307246;26;30175;-94
2023/10/29 02:54:25;;;;;;;0.20;0.20;;;;;;;10.70;59.76;99254.41;5308325;26;20064;-93
2023/10/29 02:56:51;;;;;;;0.45;0.45;;;;;;;10.61;59.76;99255.63;5326347;26;20102;-92
2023/10/29 02:59:16;;;;;;;1.85;1.05;;;;;;;10.58;59.76;99242.72;5307874;26;20326;-93
2023/10/29 03:01:42;;;;;;;0.37;0.25;;;;;;;10.49;59.76;99242.25;5307534;26;20108;-93
2023/10/29 03:04:07;;;;;;;0.10;0.10;;;;;;;10.47;59.76;99244.91;5290123;26;20048;-93
2023/10/29 03:06:34;;;;;;;1.55;0.80;;;;;;;10.48;59.76;99246.63;5307240;26;31495;-93
2023/10/29 03:08:59;;;;;;;0.30;0.30;;;;;;;10.48;59.76;99251.81;5309462;26;20079;-92
2023/10/29 03:11:24;;;;;;;0.65;0.57;;;;;;;10.48;59.76;99257.03;5308132;26;20052;-93
2023/10/29 03:13:50;;;;;;;0.70;0.70;;;;;;;10.63;59.77;99259.00;5307004;26;30635;-93
2023/10/29 03:16:15;;;;;;;0.40;0.30;;;;;;;10.80;59.77;99257.47;5307814;26;20084;-93
2023/10/29 03:18:41;;;;;;;0.62;0.62;;;;;;;10.93;59.78;99254.31;5313752;26;20052;-94
2023/10/29 03:21:06;;;;;;;0.55;0.52;;;;;;;10.84;59.79;99253.84;5313704;26;21848;-93
2023/10/29 03:23:31;;;;;;;0.32;0.32;;;;;;;10.82;59.77;99250.44;5307713;26;20445;-93
2023/10/29 03:26:03;;;;;;;0.13;0.13;;;;;;;10.63;59.77;99252.94;5308007;26;20080;-93
2023/10/29 03:28:30;;;;;;;0.25;0.25;;;;;;;10.65;59.76;99262.41;5300900;27;20660;-93
2023/10/29 03:30:55;;;;;;;0.00;0.00;;;;;;;10.61;59.76;99265.19;5307596;27;20021;-95
2023/10/29 03:33:20;;;;;;;0.25;0.25;;;;;;;10.63;59.77;99268.56;5295903;27;20084;-93
2023/10/29 03:35:46;;;;;;;0.43;0.43;;;;;;;10.61;59.76;99263.41;5282173;27;27823;-92
2023/10/29 03:38:11;;;;;;;0.25;0.10;;;;;;;10.72;59.77;99265.62;5282256;27;20104;-94
2023/10/29 03:40:37;;;;;;;0.68;0.68;;;;;;;10.69;59.76;99261.37;5300622;27;20116;-93
2023/10/29 03:43:02;;;;;;;0.05;0.05;;;;;;;10.91;59.78;99257.91;5299868;27;23030;-94
2023/10/29 03:45:27;;;;;;;0.20;0.20;;;;;;;10.82;59.78;99268.69;5299999;27;20123;-93
2023/10/29 03:47:53;;;;;;;0.43;0.43;;;;;;;10.94;59.78;99261.22;5282290;27;20061;-92
2023/10/29 03:50:18;;;;;;;0.75;0.52;;;;;;;10.88;59.78;99261.44;5300775;27;20067;-92
2023/10/29 03:52:44;;;;;;;0.62;0.62;;;;;;;10.91;59.78;99250.09;5282474;27;20067;-92
2023/10/29 03:55:09;;;;;;;0.50;0.50;;;;;;;10.90;59.78;99253.63;5300744;27;20057;-93
2023/10/29 03:57:35;;;;;;;4.53;0.90;;;;;;;10.87;59.78;99256.31;5301289;27;20061;-92
2023/10/29 04:00:00;;;;;;;0.40;0.40;;;;;;;10.95;59.78;99252.50;5302617;27;20083;-94
2023/10/29 04:02:25;;;;;;;0.90;0.80;;;;;;;11.01;59.79;99244.44;5285755;27;20063;-93
2023/10/29 04:04:51;;;;;;;0.00;0.00;;;;;;;11.13;59.79;99245.69;5301410;27;20116;-93
2023/10/29 04:07:16;;;;;;;0.52;0.52;;;;;;;11.13;59.79;99243.09;5299605;27;32175;-93
2023/10/29 04:09:42;;;;;;;0.30;0.30;;;;;;;11.21;59.79;99245.34;5299926;27;20148;-93
2023/10/29 04:12:07;;;;;;;0.20;0.20;;;;;;;11.18;59.80;99243.72;5300151;27;20057;-93
2023/10/29 04:14:32;;;;;;;0.17;0.17;;;;;;;11.15;59.79;99245.63;5282272;27;20828;-92
2023/10/29 04:16:58;;;;;;;2.03;0.95;;;;;;;11.20;59.79;99244.50;5281796;27;20238;-94
2023/10/29 04:19:23;;;;;;;0.85;0.85;;;;;;;11.20;59.79;99244.50;5282425;27;20105;-94
2023/10/29 04:21:49;;;;;;;0.62;0.62;;;;;;;11.32;59.80;99243.97;5300500;27;20071;-93
2023/10/29 04:24:15;;;;;;;1.05;0.75;;;;;;;11.35;59.80;99241.22;5301232;27;20123;-94
2023/10/29 04:26:40;;;;;;;0.52;0.52;;;;;;;11.45;59.80;99248.66;5282925;27;27631;-92
2023/10/29 04:29:06;;;;;;;0.73;0.10;;;;;;;11.67;59.82;99246.81;5299454;27;27897;-94
2023/10/29 04:31:31;;;;;;;3.10;1.80;;;;;;;11.87;59.83;99246.78;5300271;27;20117;-93
2023/10/29 04:33:56;;;;;;;5.93;0.85;;;;;;;11.59;59.81;99246.28;5300287;27;20125;-93
2023/10/29 04:36:22;;;;;;;0.62;0.62;;;;;;;11.61;59.82;99242.72;5299606;27;22229;-93
2023/10/29 04:38:48;;;;;;;0.10;0.10;;;;;;;11.57;59.81;99248.97;5301491;27;20060;-93
2023/10/29 04:41:13;;;;;;;1.17;0.93;;;;;;;11.48;59.82;99243.31;5300507;27;20057;-92
2023/10/29 04:43:41;;;;;;;0.17;0.17;;;;;;;11.55;59.81;99247.34;5299987;27;20103;-93
2023/10/29 04:46:06;;;;;;;0.57;0.57;;;;;;;11.46;59.81;99243.38;5320167;27;20061;-93
2023/10/29 04:48:31;;;;;;;0.10;0.10;;;;;;;11.51;59.81;99238.81;5308132;27;20132;-94
2023/10/29 04:50:57;;;;;;;0.10;0.10;;;;;;;11.30;59.79;99248.41;5323757;27;25010;-93
2023/10/29 04:53:22;;;;;;;0.70;0.70;;;;;;;11.29;59.79;99251.06;5299870;27;20125;-93
2023/10/29 04:55:48;;;;;;;0.00;0.00;;;;;;;11.32;59.80;99253.53;5299877;27;20058;-94
2023/10/29 04:58:13;;;;;;;0.40;0.35;;;;;;;11.30;59.81;99266.63;5299577;27;20073;-93
2023/10/29 05:00:38;;;;;;;7.05;1.95;;;;;;;11.29;59.79;99261.50;5299761;27;20104;-94
2023/10/29 05:03:04;;;;;;;0.35;0.35;;;;;;;11.33;59.80;99250.88;5300056;27;20058;-93
2023/10/29 05:05:30;;;;;;;1.08;0.85;;;;;;;11.25;59.80;99255.56;5301593;27;20063;-93
2023/10/29 05:07:56;;;;;;;0.20;0.20;;;;;;;11.34;59.80;99247.34;5314868;26;20025;-93
2023/10/29 05:10:24;;;;;;;1.00;0.65;;;;;;;11.24;59.80;99251.28;5317598;27;20067;-92
2023/10/29 05:12:50;;;;;;;0.35;0.35;;;;;;;11.21;59.79;99254.00;5308177;27;20126;-93
2023/10/29 05:15:16;;;;;;;0.00;0.00;;;;;;;11.21;59.79;99253.16;5302420;27;20069;-93
2023/10/29 05:17:41;;;;;;;0.10;0.10;;;;;;;11.31;59.80;99247.47;5302828;27;20490;-94
2023/10/29 05:20:09;;;;;;;0.32;0.32;;;;;;;11.21;59.79;99247.97;5300113;27;20096;-93
2023/10/29 05:22:34;;;;;;;0.62;0.62;;;;;;;11.26;59.80;99246.00;5300171;27;20075;-93
2023/10/29 05:25:02;;;;;;;0.68;0.68;;;;;;;11.14;59.79;99256.94;5300336;27;20120;-93
2023/10/29 05:27:27;;;;;;;0.45;0.45;;;;;;;11.49;59.81;99248.47;5300941;27;20052;-94
2023/10/29 05:29:53;;;;;;;0.52;0.52;;;;;;;11.23;59.80;99261.75;5300926;27;20106;-93
2023/10/29 05:32:18;;;;;;;0.43;0.43;;;;;;;11.25;59.80;99255.56;5301093;27;20116;-92
2023/10/29 05:34:44;;;;;;;0.95;0.80;;;;;;;11.37;59.81;99252.44;5301377;27;20080;-93
2023/10/29 05:37:09;;;;;;;0.70;0.22;;;;;;;11.43;59.80;99260.91;5301177;27;20100;-94
2023/10/29 05:39:35;;;;;;;0.10;0.10;;;;;;;11.32;59.80;99267.41;5301072;27;20132;-94
2023/10/29 05:42:01;;;;;;;0.88;0.32;;;;;;;11.32;59.80;99267.41;5305916;27;20163;-93
2023/10/29 05:44:27;;;;;;;0.43;0.40;;;;;;;11.42;59.81;99273.09;5301104;27;20119;-94
2023/10/29 05:46:52;;;;;;;0.47;0.37;;;;;;;11.45;59.80;99272.13;5301547;27;20128;-94
2023/10/29 05:49:17;;;;;;;0.37;0.37;;;;;;;11.43;59.81;99272.19;5301164;27;20132;-94
2023/10/29 05:51:43;;;;;;;0.30;0.30;;;;;;;11.53;59.82;99278.69;5300993;27;20069;-94
2023/10/29 05:54:09;;;;;;;1.85;0.60;;;;;;;11.60;59.81;99277.53;5301037;27;20061;-93
2023/10/29 05:56:34;;;;;;;0.50;0.50;;;;;;;11.54;59.82;99280.38;5300979;27;20096;-95
2023/10/29 05:58:59;;;;;;;0.10;0.10;;;;;;;11.61;59.82;99288.78;5300296;27;24628;-93
2023/10/29 06:01:25;;;;;;;0.68;0.68;;;;;;;11.62;59.81;99286.13;5302215;27;20064;-94
2023/10/29 06:03:50;;;;;;;1.40;1.33;;;;;;;11.57;59.81;99284.59;5300831;27;20080;-92
2023/10/29 06:06:16;;;;;;;0.77;0.77;;;;;;;11.75;59.83;99281.19;5319083;27;20076;-93
2023/10/29 06:08:41;;;;;;;1.27;1.17;;;;;;;11.78;59.82;99281.09;5301068;27;20076;-93
2023/10/29 06:11:06;;;;;;;0.65;0.65;;;;;;;11.87;59.83;99285.06;5319285;27;20079;-94
2023/10/29 06:13:32;;;;;;;0.52;0.52;;;;;;;11.83;59.83;99286.97;5300429;27;20152;-94
2023/10/29 06:15:57;;;;;;;1.73;1.62;;;;;;;12.04;59.84;99289.50;5301734;27;20115;-92
2023/10/29 06:18:23;;;;;;;0.95;0.90;;;;;;;11.99;59.84;99298.38;5313985;27;20996;-93
2023/10/29 06:20:48;;;;;;;0.65;0.65;;;;;;;12.09;59.84;99300.59;5301587;27;20105;-95
2023/10/29 06:23:13;;;;;;;0.40;0.40;;;;;;;12.25;59.85;99296.34;5302379;27;20076;-93
2023/10/29 06:25:39;;;;;;;0.10;0.10;;;;;;;12.24;59.85;99305.94;5299903;27;27130;-93
2023/10/29 06:28:04;;;;;;;3.42;1.65;;;;;;;12.25;59.85;99306.78;5318562;27;20064;-94
2023/10/29 06:30:30;;;;;;;2.22;1.20;;;;;;;12.31;59.86;99303.09;5286447;27;20074;-93
2023/10/29 06:32:58;;;;;;;0.62;0.60;;;;;;;12.42;59.86;99293.81;5286027;27;20099;-92
2023/10/29 06:35:24;;;;;;;4.70;0.57;;;;;;;12.50;59.86;99299.53;5286196;27;20745;-94
2023/10/29 06:37:49;;;;;;;0.65;0.65;;;;;;;12.61;59.87;99306.87;5285788;27;20060;-93
2023/10/29 06:40:15;;;;;;;1.45;1.08;;;;;;;12.62;59.87;99295.50;5285552;27;26166;-94
2023/10/29 06:42:42;;;;;;;0.10;0.10;;;;;;;12.56;59.86;99301.88;5288148;27;20117;-93
2023/10/29 06:45:09;;;;;;;5.00;1.62;;;;;;;12.71;59.87;99304.66;5290368;27;20052;-93
2023/10/29 06:47:34;;;;;;;0.55;0.55;;;;;;;12.71;59.87;99315.94;5296090;27;20041;-92
2023/10/29 06:50:00;;;;;;;6.40;2.08;;;;;;;12.76;59.88;99316.56;5299706;27;20109;-93
2023/10/29 06:52:25;;;;;;;2.28;1.70;;;;;;;12.71;59.87;99330.75;5288124;27;20409;-92
2023/10/29 06:54:51;;;;;;;0.68;0.68;;;;;;;12.77;59.88;99325.25;5287011;27;20406;-93
2023/10/29 06:57:16;;;;;;;0.45;0.43;;;;;;;12.79;59.88;99328.66;5285858;27;20037;-93
2023/10/29 06:59:42;;;;;;;0.95;0.95;;;;;;;12.97;59.89;99325.13;5285972;27;20473;-93
2023/10/29 07:02:08;;;;;;;0.32;0.30;;;;;;;12.91;59.88;99331.50;5304606;27;20118;-93
2023/10/29 07:04:33;;;;;;;2.05;1.08;;;;;;;13.05;59.90;99325.63;5285960;27;20433;-93
2023/10/29 07:06:59;;;;;;;1.48;1.35;;;;;;;13.12;59.90;99328.78;5286413;27;20095;-94
2023/10/29 07:09:24;;;;;;;0.43;0.43;;;;;;;13.04;59.90;99326.56;5286360;27;20067;-92
2023/10/29 07:11:51;;;;;;;0.10;0.10;;;;;;;12.90;59.89;99328.97;5286031;27;20672;-93
2023/10/29 07:14:16;;;;;;;1.55;1.45;;;;;;;13.01;59.89;99320.59;5287896;27;20086;-92
2023/10/29 07:16:45;;;;;;;0.95;0.95;;;;;;;13.11;59.89;99325.31;5289645;27;20111;-93
2023/10/29 07:19:11;;;;;;;4.90;1.35;;;;;;;13.15;59.90;99328.63;5286972;27;20065;-93
2023/10/29 07:21:37;;;;;;;0.88;0.88;;;;;;;13.34;59.90;99328.59;5286140;27;20777;-92
2023/10/29 07:24:05;;;;;;;1.33;0.88;;;;;;;13.54;59.92;99331.06;5304409;27;20776;-93
2023/10/29 07:26:30;;;;;;;4.03;1.83;;;;;;;13.50;59.92;99333.00;5289808;26;20434;-94
2023/10/29 07:28:56;;;;;;;1.55;0.65;;;;;;;13.52;59.92;99325.06;5308024;26;20080;-92
2023/10/29 07:31:21;;;;;;;1.40;1.30;;;;;;;13.74;59.93;99322.19;5326253;26;20158;-92
2023/10/29 07:33:47;;;;;;;0.80;0.80;;;;;;;13.57;59.92;99327.44;5307670;26;20125;-92
2023/10/29 07:36:12;;;;;;;1.17;1.10;;;;;;;13.64;59.92;99316.56;5308853;26;20106;-93
2023/10/29 07:38:38;;;;;;;0.22;0.22;;;;;;;13.62;59.92;99326.28;5307727;26;20068;-92
2023/10/29 07:41:03;;;;;;;0.25;0.25;;;;;;;13.68;59.93;99323.34;5307954;26;20075;-92
2023/10/29 07:43:28;;;;;;;0.20;0.20;;;;;;;13.95;59.94;99318.44;5307954;26;20072;-91
2023/10/29 07:46:01;;;;;;;0.20;0.20;;;;;;;13.94;59.93;99310.66;5317486;26;20350;-93
2023/10/29 07:48:26;;;;;;;2.45;0.70;;;;;;;13.89;59.94;99320.53;5294970;26;20056;-92
2023/10/29 07:50:52;;;;;;;2.17;0.68;;;;;;;14.11;59.95;99313.25;5307973;26;20128;-93
2023/10/29 07:53:17;;;;;;;1.55;1.30;;;;;;;14.41;59.97;99316.81;5307420;26;27316;-93
2023/10/29 07:55:43;;;;;;;1.17;1.00;;;;;;;14.20;59.95;99311.94;5312376;26;20100;-94
2023/10/29 07:58:08;;;;;;;1.80;0.70;;;;;;;14.23;59.96;99310.00;5307678;26;20064;-94
2023/10/29 08:00:35;;;;;;;2.47;1.55;;;;;;;14.42;59.98;99312.44;5326052;26;20061;-94
2023/10/29 08:03:00;;;;;;;0.35;0.35;;;;;;;14.45;59.97;99308.84;5289547;26;20447;-93
2023/10/29 08:05:26;;;;;;;0.52;0.45;;;;;;;14.53;59.97;99301.41;5307026;26;27123;-94
2023/10/29 08:07:51;;;;;;;2.45;2.10;;;;;;;14.61;59.98;99299.19;5307845;26;20073;-94
2023/10/29 08:10:17;;;;;;;0.65;0.52;;;;;;;14.74;59.98;99298.44;5307743;26;20123;-93
2023/10/29 08:12:42;;;;;;;0.65;0.65;;;;;;;14.72;59.99;99304.72;5306512;26;34261;-94
2023/10/29 08:15:08;;;;;;;1.95;1.85;;;;;;;14.74;59.99;99305.47;5309985;26;20056;-93
2023/10/29 08:17:33;;;;;;;1.27;1.23;;;;;;;14.76;59.98;99314.06;5289239;26;20402;-94
2023/10/29 08:19:59;;;;;;;0.28;0.28;;;;;;;14.93;59.99;99313.13;5307442;26;20076;-94
2023/10/29 08:22:25;;;;;;;0.82;0.32;;;;;;;14.99;59.99;99315.41;5307744;26;20093;-94
2023/10/29 08:24:51;;;;;;;0.22;0.22;;;;;;;15.32;60.01;99313.44;5289419;26;20052;-93
2023/10/29 08:27:17;;;;;;;2.25;1.02;;;;;;;15.22;60.01;99312.31;5307930;26;20070;-95
2023/10/29 08:29:43;;;;;;;2.80;2.08;;;;;;;15.13;60.01;99311.97;5308042;26;20096;-93
2023/10/29 08:32:08;;;;;;;2.20;2.00;;;;;;;15.00;59.99;99310.06;5308627;26;20456;-93
2023/10/29 08:34:34;;;;;;;2.03;1.73;;;;;;;15.15;60.00;99310.97;5307956;26;20044;-93
2023/10/29 08:36:59;;;;;;;3.22;2.37;;;;;;;14.97;60.00;99310.25;5310207;26;20065;-94
2023/10/29 08:39:25;;;;;;;0.82;0.73;;;;;;;15.16;60.00;99304.81;5324915;26;25032;-93
2023/10/29 08:41:50;;;;;;;1.83;1.73;;;;;;;15.21;60.01;99309.78;5307999;26;20350;-92
2023/10/29 08:44:18;;;;;;;1.50;1.42;;;;;;;15.42;60.02;99308.53;5307459;26;20403;-94
2023/10/29 08:46:44;;;;;;;3.08;1.62;;;;;;;15.57;60.03;99310.22;5307800;26;20061;-93
2023/10/29 08:49:11;;;;;;;1.90;1.10;;;;;;;15.69;60.03;99305.22;5307293;26;20064;-94
2023/10/29 08:51:36;;;;;;;1.80;1.65;;;;;;;16.03;60.05;99309.25;5289606;26;20060;-93
2023/10/29 08:54:02;;;;;;;0.70;0.70;;;;;;;15.95;60.05;99315.00;5325953;26;20074;-92
2023/10/29 08:56:29;;;;;;;1.00;0.90;;;;;;;15.97;60.05;99307.87;5308870;26;20086;-94
2023/10/29 08:58:54;;;;;;;1.58;1.48;;;;;;;16.16;60.05;99307.59;5289712;26;20440;-93
2023/10/29 09:01:20;;;;;;;1.35;1.25;;;;;;;16.31;60.06;99306.59;5308592;26;20071;-95
2023/10/29 09:03:46;;;;;;;1.02;1.02;;;;;;;16.32;60.08;99302.19;5308152;26;20337;-95
2023/10/29 09:06:12;;;;;;;2.95;1.60;;;;;;;16.37;60.07;99311.50;5309170;26;20083;-93
2023/10/29 09:08:38;;;;;;;0.90;0.45;;;;;;;16.50;60.08;99308.94;5308769;26;20733;-93
2023/10/29 09:11:03;;;;;;;1.65;0.22;;;;;;;16.70;60.08;99307.69;5308875;26;20060;-94
2023/10/29 09:13:29;;;;;;;0.30;0.30;;;;;;;16.92;60.10;99304.53;5314917;26;20111;-93
2023/10/29 09:15:55;;;;;;;0.32;0.32;;;;;;;16.91;60.10;99308.94;5324148;26;20024;-94
2023/10/29 09:18:20;;;;;;;0.08;0.08;;;;;;;17.03;60.11;99299.41;5316258;26;20106;-93
2023/10/29 09:20:46;;;;;;;0.43;0.40;;;;;;;17.12;60.11;99298.81;5308344;26;20078;-94
2023/10/29 09:23:15;;;;;;;0.13;0.13;;;;;;;17.25;60.12;99297.03;5308341;26;20060;-94
2023/10/29 09:25:45;;;;;;;0.10;0.10;;;;;;;17.40;60.13;99297.81;5290067;26;20088;-94
2023/10/29 09:28:11;;;;;;;0.75;0.65;;;;;;;17.53;60.13;99293.44;5290420;26;20064;-94
2023/10/29 09:30:40;;;;;;;0.15;0.15;;;;;;;17.76;60.14;99279.56;5290379;26;20786;-95
2023/10/29 09:33:07;;;;;;;0.43;0.43;;;;;;;17.84;60.14;99284.31;5308353;26;20064;-95
2023/10/29 09:35:34;;;;;;;1.00;0.43;;;;;;;17.90;60.15;99285.66;5310095;26;20073;-94
2023/10/29 09:37:59;;;;;;;0.40;0.28;;;;;;;18.01;60.16;99283.13;5310703;26;20084;-94
2023/10/29 09:40:24;;;;;;;1.30;0.43;;;;;;;18.16;60.17;99275.94;5320717;26;20067;-94
2023/10/29 09:42:54;;;;;;;1.27;0.90;;;;;;;18.24;60.17;99277.09;5320022;26;21147;-94
2023/10/29 09:45:26;;;;;;;0.43;0.43;;;;;;;18.64;60.19;99276.87;5302482;26;20025;-94
2023/10/29 09:47:58;;;;;;;0.20;0.20;;;;;;;18.84;60.20;99267.50;5293513;26;20065;-94
2023/10/29 09:50:24;;;;;;;0.05;0.05;;;;;;;19.02;60.22;99263.53;5291324;26;20828;-95
2023/10/29 09:52:50;;;;;;;3.30;1.33;;;;;;;19.20;60.22;99266.59;5308755;26;20053;-94
2023/10/29 09:55:16;;;;;;;0.65;0.65;;;;;;;19.24;60.21;99268.87;5309161;26;20060;-93
2023/10/29 09:57:42;;;;;;;0.10;0.10;;;;;;;19.30;60.22;99270.22;5329171;26;20070;-95
2023/10/29 10:00:10;;;;;;;0.10;0.10;;;;;;;19.39;60.22;99280.06;5310004;26;20096;-95
2023/10/29 10:02:52;;;;;;;0.00;0.00;;;;;;;19.58;60.24;99272.47;5309465;26;20436;-95
2023/10/29 10:05:18;;;;;;;3.72;0.55;;;;;;;19.55;60.24;99258.66;5309415;26;20057;-94
2023/10/29 10:07:43;;;;;;;0.00;0.00;;;;;;;19.61;60.23;99256.38;5292291;26;20048;-95
2023/10/29 10:10:09;;;;;;;0.00;0.00;;;;;;;19.81;60.25;99259.28;5310264;26;20071;-95
2023/10/29 10:12:47;;;;;;;0.30;0.30;;;;;;;19.89;60.26;99257.75;5308585;26;20057;-95
2023/10/29 10:15:15;;;;;;;0.10;0.10;;;;;;;19.97;60.26;99262.41;5290735;26;20061;-94
2023/10/29 10:17:57;;;;;;;0.45;0.30;;;;;;;20.06;60.26;99253.75;5309192;26;20021;-94
2023/10/29 10:20:23;;;;;;;1.10;1.05;;;;;;;20.12;60.27;99250.66;5293114;26;20052;-94
2023/10/29 10:23:15;;;;;;;7.07;1.60;;;;;;;20.34;60.28;99252.38;5312267;26;20071;-94
2023/10/29 10:25:40;;;;;;;0.00;0.00;;;;;;;20.40;60.29;99246.66;5332473;26;20024;-93
2023/10/29 10:28:06;;;;;;;4.28;0.32;;;;;;;20.61;60.29;99237.97;5315552;26;20090;-94
2023/10/29 10:30:37;;;;;;;0.00;0.00;;;;;;;20.76;60.29;99240.19;5308281;26;20061;-96
2023/10/29 10:33:11;;;;;;;0.10;0.10;;;;;;;20.99;60.31;99232.16;5290548;26;20021;-95
2023/10/29 10:35:44;;;;;;;0.30;0.30;;;;;;;21.05;60.32;99232.47;5290366;26;20059;-95
2023/10/29 10:38:10;;;;;;;0.00;0.00;;;;;;;21.02;60.31;99226.59;5290196;26;20061;-95
2023/10/29 10:40:35;;;;;;;0.00;0.00;;;;;;;21.26;60.33;99227.22;5290259;26;20764;-95
2023/10/29 10:43:01;;;;;;;0.00;0.00;;;;;;;21.32;60.33;99221.44;5325530;26;20101;-94
2023/10/29 10:45:27;;;;;;;0.52;0.43;;;;;;;21.34;60.33;99226.59;5311065;26;20116;-95
2023/10/29 10:47:57;;;;;;;0.10;0.10;;;;;;;21.51;60.34;99220.69;5311759;26;20086;-95
2023/10/29 10:50:26;;;;;;;0.00;0.00;;;;;;;21.67;60.35;99218.41;5290143;26;20058;-95
2023/10/29 10:52:51;;;;;;;0.00;0.00;;;;;;;21.86;60.35;99211.53;5308676;26;20067;-95
2023/10/29 10:55:18;;;;;;;0.00;0.00;;;;;;;22.00;60.36;99212.00;5308224;26;20057;-95
2023/10/29 10:57:44;;;;;;;0.00;0.00;;;;;;;22.04;60.37;99213.44;5293778;26;20064;-96
2023/10/29 11:00:11;;;;;;;0.03;0.03;;;;;;;22.11;60.36;99207.59;5309826;26;20116;-95
2023/10/29 11:02:39;;;;;;;0.00;0.00;;;;;;;22.13;60.37;99211.78;5291535;26;20021;-95
2023/10/29 11:05:06;;;;;;;0.15;0.15;;;;;;;22.19;60.38;99208.56;5291126;26;20065;-94
2023/10/29 11:07:32;;;;;;;0.08;0.08;;;;;;;22.07;60.37;99204.38;5310273;26;20071;-95
2023/10/29 11:09:58;;;;;;;0.13;0.13;;;;;;;22.01;60.36;99215.50;5312310;26;20106;-94
2023/10/29 11:12:24;;;;;;;0.90;0.65;;;;;;;21.98;60.36;99199.81;5327706;26;20059;-95
2023/10/29 11:15:13;;;;;;;0.45;0.45;;;;;;;21.97;60.37;99200.81;5326569;26;20356;-95
2023/10/29 11:18:00;;;;;;;0.00;0.00;;;;;;;22.16;60.38;99205.38;5326497;26;20349;-95
2023/10/29 11:20:38;;;;;;;0.05;0.05;;;;;;;22.11;60.37;99203.13;5308155;26;20416;-95
2023/10/29 11:23:08;;;;;;;0.00;0.00;;;;;;;22.13;60.38;99209.13;5325912;26;20120;-94
2023/10/29 11:25:34;;;;;;;0.00;0.00;;;;;;;22.03;60.38;99200.28;5289709;26;20079;-96
2023/10/29 11:27:59;;;;;;;0.00;0.00;;;;;;;21.96;60.37;99197.31;5311011;26;20060;-96
2023/10/29 11:30:28;;;;;;;0.08;0.00;;;;;;;22.01;60.36;99199.59;5307923;26;20052;-95